sensor_id;sensor_type;location;lat;lon;timestamp;P1;durP1;ratioP1;P2;durP2;ratioP2
76477;SDS011;65309;49.790;18.972;2024-03-08T00:03:45;27.17;;;15.80;;
76477;SDS011;65309;49.790;18.972;2024-03-08T00:08:47;19.05;;;10.15;;
76477;SDS011;65309;49.790;18.972;2024-03-08T00:13:51;12.93;;;9.48;;
76477;SDS011;65309;49.790;18.972;2024-03-08T00:18:54;20.45;;;13.02;;
76477;SDS011;65309;49.790;18.972;2024-03-08T00:23:56;26.25;;;13.77;;
76477;SDS011;65309;49.790;18.972;2024-03-08T00:29:00;19.15;;;12.55;;
76477;SDS011;65309;49.790;18.972;2024-03-08T00:34:02;14.07;;;9.07;;
76477;SDS011;65309;49.790;18.972;2024-03-08T00:39:04;23.00;;;11.13;;
76477;SDS011;65309;49.790;18.972;2024-03-08T00:44:10;11.50;;;7.35;;
76477;SDS011;65309;49.790;18.972;2024-03-08T00:49:12;20.52;;;11.68;;
76477;SDS011;65309;49.790;18.972;2024-03-08T00:54:14;17.75;;;10.90;;
76477;SDS011;65309;49.790;18.972;2024-03-08T00:59:19;30.70;;;17.02;;
76477;SDS011;65309;49.790;18.972;2024-03-08T01:04:22;10.73;;;9.25;;
76477;SDS011;65309;49.790;18.972;2024-03-08T01:09:25;13.18;;;6.18;;
76477;SDS011;65309;49.790;18.972;2024-03-08T01:19:33;25.98;;;12.68;;
76477;SDS011;65309;49.790;18.972;2024-03-08T01:24:35;13.02;;;9.98;;
76477;SDS011;65309;49.790;18.972;2024-03-08T01:29:40;23.77;;;12.80;;
76477;SDS011;65309;49.790;18.972;2024-03-08T01:34:42;21.60;;;13.32;;
76477;SDS011;65309;49.790;18.972;2024-03-08T01:39:46;12.43;;;6.57;;
76477;SDS011;65309;49.790;18.972;2024-03-08T01:44:49;24.17;;;14.95;;
76477;SDS011;65309;49.790;18.972;2024-03-08T01:49:53;10.60;;;5.82;;
76477;SDS011;65309;49.790;18.972;2024-03-08T01:54:55;16.77;;;11.88;;
76477;SDS011;65309;49.790;18.972;2024-03-08T01:59:59;12.95;;;8.02;;
76477;SDS011;65309;49.790;18.972;2024-03-08T02:05:05;16.27;;;8.63;;
76477;SDS011;65309;49.790;18.972;2024-03-08T02:10:08;16.75;;;9.98;;
76477;SDS011;65309;49.790;18.972;2024-03-08T02:15:12;16.85;;;11.88;;
76477;SDS011;65309;49.790;18.972;2024-03-08T02:20:14;9.07;;;6.28;;
76477;SDS011;65309;49.790;18.972;2024-03-08T02:25:18;15.75;;;9.50;;
76477;SDS011;65309;49.790;18.972;2024-03-08T02:35:22;9.57;;;6.15;;
76477;SDS011;65309;49.790;18.972;2024-03-08T02:40:26;9.40;;;5.57;;
76477;SDS011;65309;49.790;18.972;2024-03-08T02:45:28;13.15;;;7.13;;
76477;SDS011;65309;49.790;18.972;2024-03-08T02:50:31;21.48;;;8.40;;
76477;SDS011;65309;49.790;18.972;2024-03-08T02:55:35;12.52;;;6.57;;
76477;SDS011;65309;49.790;18.972;2024-03-08T03:00:37;10.45;;;7.85;;
76477;SDS011;65309;49.790;18.972;2024-03-08T03:05:41;9.15;;;5.90;;
76477;SDS011;65309;49.790;18.972;2024-03-08T03:10:51;10.40;;;5.57;;
76477;SDS011;65309;49.790;18.972;2024-03-08T03:15:53;7.57;;;5.53;;
76477;SDS011;65309;49.790;18.972;2024-03-08T03:20:55;10.27;;;6.60;;
76477;SDS011;65309;49.790;18.972;2024-03-08T03:25:59;9.38;;;5.82;;
76477;SDS011;65309;49.790;18.972;2024-03-08T03:36:04;10.55;;;6.10;;
76477;SDS011;65309;49.790;18.972;2024-03-08T03:41:13;10.20;;;5.85;;
76477;SDS011;65309;49.790;18.972;2024-03-08T03:46:16;8.80;;;5.28;;
76477;SDS011;65309;49.790;18.972;2024-03-08T03:51:18;15.43;;;6.65;;
76477;SDS011;65309;49.790;18.972;2024-03-08T03:56:26;8.93;;;5.82;;
76477;SDS011;65309;49.790;18.972;2024-03-08T04:01:28;18.90;;;6.68;;
76477;SDS011;65309;49.790;18.972;2024-03-08T04:06:31;10.05;;;5.95;;
76477;SDS011;65309;49.790;18.972;2024-03-08T04:11:35;10.90;;;6.50;;
76477;SDS011;65309;49.790;18.972;2024-03-08T04:16:37;7.78;;;5.28;;
76477;SDS011;65309;49.790;18.972;2024-03-08T04:21:39;8.65;;;5.93;;
76477;SDS011;65309;49.790;18.972;2024-03-08T04:26:43;8.13;;;5.30;;
76477;SDS011;65309;49.790;18.972;2024-03-08T04:31:45;6.18;;;3.72;;
76477;SDS011;65309;49.790;18.972;2024-03-08T04:36:48;6.55;;;4.43;;
76477;SDS011;65309;49.790;18.972;2024-03-08T04:41:52;8.52;;;4.40;;
76477;SDS011;65309;49.790;18.972;2024-03-08T04:46:57;8.80;;;6.70;;
76477;SDS011;65309;49.790;18.972;2024-03-08T04:51:59;7.22;;;5.68;;
76477;SDS011;65309;49.790;18.972;2024-03-08T04:57:06;9.23;;;5.72;;
76477;SDS011;65309;49.790;18.972;2024-03-08T05:02:10;6.45;;;5.00;;
76477;SDS011;65309;49.790;18.972;2024-03-08T05:07:13;10.90;;;5.30;;
76477;SDS011;65309;49.790;18.972;2024-03-08T05:12:17;9.00;;;5.55;;
76477;SDS011;65309;49.790;18.972;2024-03-08T05:17:19;10.48;;;6.70;;
76477;SDS011;65309;49.790;18.972;2024-03-08T05:22:21;10.77;;;6.53;;
76477;SDS011;65309;49.790;18.972;2024-03-08T05:27:25;11.52;;;6.72;;
76477;SDS011;65309;49.790;18.972;2024-03-08T05:32:27;12.02;;;7.10;;
76477;SDS011;65309;49.790;18.972;2024-03-08T05:37:32;10.82;;;6.65;;
76477;SDS011;65309;49.790;18.972;2024-03-08T05:42:36;14.90;;;9.27;;
76477;SDS011;65309;49.790;18.972;2024-03-08T05:47:38;10.52;;;6.43;;
76477;SDS011;65309;49.790;18.972;2024-03-08T05:52:41;11.40;;;6.03;;
76477;SDS011;65309;49.790;18.972;2024-03-08T05:57:44;13.23;;;8.25;;
76477;SDS011;65309;49.790;18.972;2024-03-08T06:02:46;10.65;;;7.93;;
76477;SDS011;65309;49.790;18.972;2024-03-08T06:07:49;7.53;;;4.97;;
76477;SDS011;65309;49.790;18.972;2024-03-08T06:12:53;14.10;;;7.30;;
76477;SDS011;65309;49.790;18.972;2024-03-08T06:17:56;13.60;;;7.13;;
76477;SDS011;65309;49.790;18.972;2024-03-08T06:22:58;8.85;;;7.00;;
76477;SDS011;65309;49.790;18.972;2024-03-08T06:28:03;19.02;;;7.40;;
76477;SDS011;65309;49.790;18.972;2024-03-08T06:33:06;13.38;;;8.23;;
76477;SDS011;65309;49.790;18.972;2024-03-08T06:38:10;18.50;;;8.90;;
76477;SDS011;65309;49.790;18.972;2024-03-08T06:43:14;15.98;;;8.68;;
76477;SDS011;65309;49.790;18.972;2024-03-08T06:48:20;11.13;;;7.80;;
76477;SDS011;65309;49.790;18.972;2024-03-08T06:53:22;10.43;;;7.10;;
76477;SDS011;65309;49.790;18.972;2024-03-08T06:58:30;13.13;;;7.88;;
76477;SDS011;65309;49.790;18.972;2024-03-08T07:03:32;14.23;;;7.97;;
76477;SDS011;65309;49.790;18.972;2024-03-08T07:08:35;9.52;;;7.07;;
76477;SDS011;65309;49.790;18.972;2024-03-08T07:13:38;13.40;;;8.38;;
76477;SDS011;65309;49.790;18.972;2024-03-08T07:18:41;13.35;;;7.28;;
76477;SDS011;65309;49.790;18.972;2024-03-08T07:23:45;22.80;;;10.85;;
76477;SDS011;65309;49.790;18.972;2024-03-08T07:28:50;18.20;;;7.82;;
76477;SDS011;65309;49.790;18.972;2024-03-08T07:33:52;16.48;;;8.68;;
76477;SDS011;65309;49.790;18.972;2024-03-08T07:38:55;20.98;;;11.25;;
76477;SDS011;65309;49.790;18.972;2024-03-08T07:43:59;12.40;;;7.88;;
76477;SDS011;65309;49.790;18.972;2024-03-08T07:49:02;14.68;;;10.20;;
76477;SDS011;65309;49.790;18.972;2024-03-08T07:54:04;13.50;;;9.02;;
76477;SDS011;65309;49.790;18.972;2024-03-08T07:59:08;25.17;;;13.45;;
76477;SDS011;65309;49.790;18.972;2024-03-08T08:04:10;14.75;;;9.48;;
76477;SDS011;65309;49.790;18.972;2024-03-08T08:14:18;12.45;;;7.38;;
76477;SDS011;65309;49.790;18.972;2024-03-08T08:19:22;14.60;;;8.60;;
76477;SDS011;65309;49.790;18.972;2024-03-08T08:24:24;13.55;;;7.28;;
76477;SDS011;65309;49.790;18.972;2024-03-08T08:29:29;10.70;;;6.53;;
76477;SDS011;65309;49.790;18.972;2024-03-08T08:34:31;21.05;;;10.80;;
76477;SDS011;65309;49.790;18.972;2024-03-08T08:39:34;8.90;;;5.47;;
76477;SDS011;65309;49.790;18.972;2024-03-08T08:44:37;13.27;;;9.43;;
76477;SDS011;65309;49.790;18.972;2024-03-08T08:49:40;17.67;;;9.02;;
76477;SDS011;65309;49.790;18.972;2024-03-08T08:54:42;17.02;;;8.85;;
76477;SDS011;65309;49.790;18.972;2024-03-08T08:59:46;16.27;;;9.95;;
76477;SDS011;65309;49.790;18.972;2024-03-08T09:04:48;10.15;;;6.65;;
76477;SDS011;65309;49.790;18.972;2024-03-08T09:09:50;13.85;;;7.90;;
76477;SDS011;65309;49.790;18.972;2024-03-08T09:14:54;17.73;;;8.70;;
76477;SDS011;65309;49.790;18.972;2024-03-08T09:19:57;7.80;;;5.43;;
76477;SDS011;65309;49.790;18.972;2024-03-08T09:25:03;14.75;;;9.43;;
76477;SDS011;65309;49.790;18.972;2024-03-08T09:30:09;8.40;;;4.57;;
76477;SDS011;65309;49.790;18.972;2024-03-08T09:35:15;9.52;;;5.68;;
76477;SDS011;65309;49.790;18.972;2024-03-08T09:40:17;7.97;;;5.20;;
76477;SDS011;65309;49.790;18.972;2024-03-08T09:45:24;11.48;;;7.68;;
76477;SDS011;65309;49.790;18.972;2024-03-08T09:50:28;14.38;;;8.98;;
76477;SDS011;65309;49.790;18.972;2024-03-08T09:55:31;9.13;;;5.47;;
76477;SDS011;65309;49.790;18.972;2024-03-08T10:00:38;9.60;;;6.05;;
76477;SDS011;65309;49.790;18.972;2024-03-08T10:05:40;14.73;;;7.30;;
76477;SDS011;65309;49.790;18.972;2024-03-08T10:10:42;15.00;;;8.68;;
76477;SDS011;65309;49.790;18.972;2024-03-08T10:15:47;7.13;;;3.67;;
76477;SDS011;65309;49.790;18.972;2024-03-08T10:21:01;12.50;;;7.18;;
76477;SDS011;65309;49.790;18.972;2024-03-08T10:26:13;10.27;;;5.70;;
76477;SDS011;65309;49.790;18.972;2024-03-08T10:31:19;10.57;;;6.60;;
76477;SDS011;65309;49.790;18.972;2024-03-08T10:36:22;10.57;;;6.35;;
76477;SDS011;65309;49.790;18.972;2024-03-08T10:41:24;11.55;;;6.80;;
76477;SDS011;65309;49.790;18.972;2024-03-08T10:46:35;15.18;;;8.77;;
76477;SDS011;65309;49.790;18.972;2024-03-08T10:51:48;14.98;;;8.30;;
76477;SDS011;65309;49.790;18.972;2024-03-08T10:56:54;10.95;;;6.95;;
76477;SDS011;65309;49.790;18.972;2024-03-08T11:01:58;17.33;;;9.10;;
76477;SDS011;65309;49.790;18.972;2024-03-08T11:07:00;20.63;;;10.50;;
76477;SDS011;65309;49.790;18.972;2024-03-08T11:17:45;17.58;;;10.45;;
76477;SDS011;65309;49.790;18.972;2024-03-08T11:22:50;7.07;;;4.80;;
76477;SDS011;65309;49.790;18.972;2024-03-08T11:28:07;17.25;;;9.65;;
76477;SDS011;65309;49.790;18.972;2024-03-08T11:33:16;14.85;;;7.82;;
76477;SDS011;65309;49.790;18.972;2024-03-08T11:38:18;12.23;;;6.93;;
76477;SDS011;65309;49.790;18.972;2024-03-08T11:43:21;17.55;;;10.57;;
76477;SDS011;65309;49.790;18.972;2024-03-08T11:53:27;15.55;;;9.02;;
76477;SDS011;65309;49.790;18.972;2024-03-08T11:58:30;19.42;;;9.93;;
76477;SDS011;65309;49.790;18.972;2024-03-08T12:03:33;10.07;;;6.85;;
76477;SDS011;65309;49.790;18.972;2024-03-08T12:08:36;13.80;;;8.20;;
76477;SDS011;65309;49.790;18.972;2024-03-08T12:13:38;18.30;;;9.50;;
76477;SDS011;65309;49.790;18.972;2024-03-08T12:18:44;21.80;;;10.18;;
76477;SDS011;65309;49.790;18.972;2024-03-08T12:23:46;17.70;;;10.57;;
76477;SDS011;65309;49.790;18.972;2024-03-08T12:29:00;10.45;;;7.07;;
76477;SDS011;65309;49.790;18.972;2024-03-08T12:34:20;24.90;;;11.07;;
76477;SDS011;65309;49.790;18.972;2024-03-08T12:39:23;20.23;;;10.70;;
76477;SDS011;65309;49.790;18.972;2024-03-08T12:44:29;14.30;;;8.00;;
76477;SDS011;65309;49.790;18.972;2024-03-08T12:49:33;19.60;;;10.35;;
76477;SDS011;65309;49.790;18.972;2024-03-08T12:54:35;24.88;;;11.23;;
76477;SDS011;65309;49.790;18.972;2024-03-08T12:59:37;13.40;;;8.80;;
76477;SDS011;65309;49.790;18.972;2024-03-08T13:04:43;25.48;;;14.75;;
76477;SDS011;65309;49.790;18.972;2024-03-08T13:09:46;22.77;;;11.43;;
76477;SDS011;65309;49.790;18.972;2024-03-08T13:14:48;27.45;;;14.30;;
76477;SDS011;65309;49.790;18.972;2024-03-08T13:19:51;16.77;;;10.68;;
76477;SDS011;65309;49.790;18.972;2024-03-08T13:24:58;16.25;;;8.60;;
76477;SDS011;65309;49.790;18.972;2024-03-08T13:30:03;15.00;;;10.15;;
76477;SDS011;65309;49.790;18.972;2024-03-08T13:35:08;19.35;;;11.05;;
76477;SDS011;65309;49.790;18.972;2024-03-08T13:40:14;20.10;;;11.95;;
76477;SDS011;65309;49.790;18.972;2024-03-08T13:45:16;23.10;;;12.90;;
76477;SDS011;65309;49.790;18.972;2024-03-08T13:50:28;12.10;;;8.07;;
76477;SDS011;65309;49.790;18.972;2024-03-08T13:55:32;15.30;;;10.18;;
76477;SDS011;65309;49.790;18.972;2024-03-08T14:00:35;15.48;;;9.82;;
76477;SDS011;65309;49.790;18.972;2024-03-08T14:05:39;23.17;;;10.95;;
76477;SDS011;65309;49.790;18.972;2024-03-08T14:10:43;16.10;;;10.35;;
76477;SDS011;65309;49.790;18.972;2024-03-08T14:15:49;18.50;;;11.98;;
76477;SDS011;65309;49.790;18.972;2024-03-08T14:20:52;12.15;;;7.72;;
76477;SDS011;65309;49.790;18.972;2024-03-08T14:25:55;21.83;;;11.20;;
76477;SDS011;65309;49.790;18.972;2024-03-08T14:30:57;13.10;;;7.57;;
76477;SDS011;65309;49.790;18.972;2024-03-08T14:36:01;15.05;;;8.07;;
76477;SDS011;65309;49.790;18.972;2024-03-08T14:41:03;21.02;;;11.52;;
76477;SDS011;65309;49.790;18.972;2024-03-08T14:46:08;22.45;;;11.85;;
76477;SDS011;65309;49.790;18.972;2024-03-08T14:51:11;27.35;;;14.85;;
76477;SDS011;65309;49.790;18.972;2024-03-08T14:56:16;10.02;;;6.13;;
76477;SDS011;65309;49.790;18.972;2024-03-08T15:01:18;9.00;;;7.00;;
76477;SDS011;65309;49.790;18.972;2024-03-08T15:06:27;15.73;;;8.75;;
76477;SDS011;65309;49.790;18.972;2024-03-08T15:11:33;32.70;;;12.82;;
76477;SDS011;65309;49.790;18.972;2024-03-08T15:16:36;9.75;;;6.40;;
76477;SDS011;65309;49.790;18.972;2024-03-08T15:21:40;29.92;;;13.77;;
76477;SDS011;65309;49.790;18.972;2024-03-08T15:26:44;17.80;;;10.00;;
76477;SDS011;65309;49.790;18.972;2024-03-08T15:31:50;14.52;;;7.30;;
76477;SDS011;65309;49.790;18.972;2024-03-08T15:36:57;21.05;;;9.85;;
76477;SDS011;65309;49.790;18.972;2024-03-08T15:42:04;18.65;;;12.60;;
76477;SDS011;65309;49.790;18.972;2024-03-08T15:47:07;14.32;;;10.10;;
76477;SDS011;65309;49.790;18.972;2024-03-08T15:52:14;26.30;;;12.00;;
76477;SDS011;65309;49.790;18.972;2024-03-08T15:57:16;27.98;;;12.77;;
76477;SDS011;65309;49.790;18.972;2024-03-08T16:02:22;18.50;;;11.30;;
76477;SDS011;65309;49.790;18.972;2024-03-08T16:07:28;24.42;;;11.55;;
76477;SDS011;65309;49.790;18.972;2024-03-08T16:12:30;18.67;;;10.52;;
76477;SDS011;65309;49.790;18.972;2024-03-08T16:17:35;17.60;;;10.55;;
76477;SDS011;65309;49.790;18.972;2024-03-08T16:22:39;25.77;;;14.50;;
76477;SDS011;65309;49.790;18.972;2024-03-08T16:27:45;22.83;;;14.20;;
76477;SDS011;65309;49.790;18.972;2024-03-08T16:32:49;22.10;;;13.13;;
76477;SDS011;65309;49.790;18.972;2024-03-08T16:37:57;26.77;;;13.93;;
76477;SDS011;65309;49.790;18.972;2024-03-08T16:42:59;27.17;;;14.07;;
76477;SDS011;65309;49.790;18.972;2024-03-08T16:48:02;34.92;;;13.50;;
76477;SDS011;65309;49.790;18.972;2024-03-08T16:58:09;25.70;;;13.60;;
76477;SDS011;65309;49.790;18.972;2024-03-08T17:03:16;26.20;;;14.77;;
76477;SDS011;65309;49.790;18.972;2024-03-08T17:08:20;18.00;;;11.05;;
76477;SDS011;65309;49.790;18.972;2024-03-08T17:13:23;34.55;;;15.00;;
76477;SDS011;65309;49.790;18.972;2024-03-08T17:18:26;25.80;;;14.88;;
76477;SDS011;65309;49.790;18.972;2024-03-08T17:28:33;19.45;;;10.98;;
76477;SDS011;65309;49.790;18.972;2024-03-08T17:33:38;21.45;;;11.93;;
76477;SDS011;65309;49.790;18.972;2024-03-08T17:38:47;29.85;;;13.98;;
76477;SDS011;65309;49.790;18.972;2024-03-08T17:43:52;31.70;;;15.02;;
76477;SDS011;65309;49.790;18.972;2024-03-08T17:48:55;26.58;;;13.95;;
76477;SDS011;65309;49.790;18.972;2024-03-08T17:53:59;27.85;;;14.80;;
76477;SDS011;65309;49.790;18.972;2024-03-08T17:59:02;23.25;;;13.45;;
76477;SDS011;65309;49.790;18.972;2024-03-08T18:04:05;24.40;;;13.68;;
76477;SDS011;65309;49.790;18.972;2024-03-08T18:09:12;30.00;;;15.35;;
76477;SDS011;65309;49.790;18.972;2024-03-08T18:14:14;37.25;;;17.98;;
76477;SDS011;65309;49.790;18.972;2024-03-08T18:19:17;30.85;;;14.02;;
76477;SDS011;65309;49.790;18.972;2024-03-08T18:24:22;27.15;;;15.68;;
76477;SDS011;65309;49.790;18.972;2024-03-08T18:34:27;26.17;;;14.15;;
76477;SDS011;65309;49.790;18.972;2024-03-08T18:39:34;29.30;;;14.98;;
76477;SDS011;65309;49.790;18.972;2024-03-08T18:44:41;26.10;;;15.15;;
76477;SDS011;65309;49.790;18.972;2024-03-08T18:49:43;23.48;;;12.45;;
76477;SDS011;65309;49.790;18.972;2024-03-08T18:54:50;32.80;;;16.02;;
76477;SDS011;65309;49.790;18.972;2024-03-08T18:59:56;29.05;;;14.52;;
76477;SDS011;65309;49.790;18.972;2024-03-08T19:04:59;26.10;;;12.48;;
76477;SDS011;65309;49.790;18.972;2024-03-08T19:10:03;24.75;;;11.15;;
76477;SDS011;65309;49.790;18.972;2024-03-08T19:15:08;21.38;;;11.98;;
76477;SDS011;65309;49.790;18.972;2024-03-08T19:20:12;14.30;;;10.60;;
76477;SDS011;65309;49.790;18.972;2024-03-08T19:25:16;15.85;;;9.30;;
76477;SDS011;65309;49.790;18.972;2024-03-08T19:30:20;19.65;;;9.38;;
76477;SDS011;65309;49.790;18.972;2024-03-08T19:35:29;17.08;;;9.13;;
76477;SDS011;65309;49.790;18.972;2024-03-08T19:40:34;20.70;;;10.77;;
76477;SDS011;65309;49.790;18.972;2024-03-08T19:45:39;18.73;;;9.98;;
76477;SDS011;65309;49.790;18.972;2024-03-08T19:50:42;15.57;;;9.75;;
76477;SDS011;65309;49.790;18.972;2024-03-08T19:55:47;13.77;;;8.48;;
76477;SDS011;65309;49.790;18.972;2024-03-08T20:00:53;19.70;;;9.93;;
76477;SDS011;65309;49.790;18.972;2024-03-08T20:06:05;14.52;;;9.18;;
76477;SDS011;65309;49.790;18.972;2024-03-08T20:11:09;12.27;;;9.02;;
76477;SDS011;65309;49.790;18.972;2024-03-08T20:16:12;14.88;;;9.23;;
76477;SDS011;65309;49.790;18.972;2024-03-08T20:21:15;20.48;;;10.35;;
76477;SDS011;65309;49.790;18.972;2024-03-08T20:26:19;16.40;;;9.93;;
76477;SDS011;65309;49.790;18.972;2024-03-08T20:31:24;17.77;;;11.38;;
76477;SDS011;65309;49.790;18.972;2024-03-08T20:36:27;16.58;;;8.88;;
76477;SDS011;65309;49.790;18.972;2024-03-08T20:41:30;12.98;;;8.57;;
76477;SDS011;65309;49.790;18.972;2024-03-08T20:46:33;19.40;;;8.88;;
76477;SDS011;65309;49.790;18.972;2024-03-08T20:51:36;9.27;;;6.50;;
76477;SDS011;65309;49.790;18.972;2024-03-08T20:56:39;8.82;;;5.65;;
76477;SDS011;65309;49.790;18.972;2024-03-08T21:01:43;5.65;;;3.72;;
76477;SDS011;65309;49.790;18.972;2024-03-08T21:06:45;5.65;;;3.65;;
76477;SDS011;65309;49.790;18.972;2024-03-08T21:11:49;22.15;;;9.95;;
76477;SDS011;65309;49.790;18.972;2024-03-08T21:16:52;12.65;;;6.35;;
76477;SDS011;65309;49.790;18.972;2024-03-08T21:21:54;13.68;;;7.25;;
76477;SDS011;65309;49.790;18.972;2024-03-08T21:26:58;13.20;;;7.28;;
76477;SDS011;65309;49.790;18.972;2024-03-08T21:32:00;13.80;;;7.50;;
76477;SDS011;65309;49.790;18.972;2024-03-08T21:37:06;22.92;;;9.07;;
76477;SDS011;65309;49.790;18.972;2024-03-08T21:42:10;19.30;;;11.27;;
76477;SDS011;65309;49.790;18.972;2024-03-08T21:47:12;16.25;;;8.38;;
76477;SDS011;65309;49.790;18.972;2024-03-08T21:52:14;9.50;;;5.35;;
76477;SDS011;65309;49.790;18.972;2024-03-08T21:57:18;14.00;;;7.30;;
76477;SDS011;65309;49.790;18.972;2024-03-08T22:02:20;15.02;;;6.85;;
76477;SDS011;65309;49.790;18.972;2024-03-08T22:07:23;12.23;;;7.65;;
76477;SDS011;65309;49.790;18.972;2024-03-08T22:12:27;18.25;;;7.90;;
76477;SDS011;65309;49.790;18.972;2024-03-08T22:17:32;11.50;;;7.05;;
76477;SDS011;65309;49.790;18.972;2024-03-08T22:22:34;12.70;;;6.88;;
76477;SDS011;65309;49.790;18.972;2024-03-08T22:27:39;21.58;;;8.73;;
76477;SDS011;65309;49.790;18.972;2024-03-08T22:32:43;14.35;;;9.55;;
76477;SDS011;65309;49.790;18.972;2024-03-08T22:37:46;19.15;;;10.63;;
76477;SDS011;65309;49.790;18.972;2024-03-08T22:42:50;14.95;;;9.38;;
76477;SDS011;65309;49.790;18.972;2024-03-08T22:47:53;16.65;;;8.55;;
76477;SDS011;65309;49.790;18.972;2024-03-08T22:52:56;22.73;;;10.30;;
76477;SDS011;65309;49.790;18.972;2024-03-08T22:57:59;18.05;;;10.63;;
76477;SDS011;65309;49.790;18.972;2024-03-08T23:03:03;13.02;;;6.97;;
76477;SDS011;65309;49.790;18.972;2024-03-08T23:08:09;12.40;;;6.43;;
76477;SDS011;65309;49.790;18.972;2024-03-08T23:13:14;11.70;;;4.97;;
76477;SDS011;65309;49.790;18.972;2024-03-08T23:18:18;9.52;;;5.90;;
76477;SDS011;65309;49.790;18.972;2024-03-08T23:23:22;10.52;;;5.22;;
76477;SDS011;65309;49.790;18.972;2024-03-08T23:28:25;10.68;;;6.25;;
76477;SDS011;65309;49.790;18.972;2024-03-08T23:33:31;13.50;;;6.97;;
76477;SDS011;65309;49.790;18.972;2024-03-08T23:38:34;10.25;;;5.70;;
76477;SDS011;65309;49.790;18.972;2024-03-08T23:43:38;10.57;;;5.70;;
76477;SDS011;65309;49.790;18.972;2024-03-08T23:48:42;8.23;;;5.03;;
76477;SDS011;65309;49.790;18.972;2024-03-08T23:53:45;6.95;;;4.40;;
76477;SDS011;65309;49.790;18.972;2024-03-08T23:58:50;6.63;;;4.45;;
